Time;durP1;ratioP1;P1;durP2;ratioP2;P2;SDS_P1;SDS_P2;PMS_P1;PMS_P2;Temp;Humidity;BMP_temperature;BMP_pressure;BME280_temperature;BME280_humidity;BME280_pressure;Samples;Min_cycle;Max_cycle;Signal;HPM_P1;HPM_P2
2021/11/16 00:01:28;;;;;;;38.58;22.75;;;7.00;99.90;;;6.57;100.00;102127.97;4104248;28;20035;-67
2021/11/16 00:03:29;;;;;;;40.35;23.58;;;7.00;99.90;;;6.64;100.00;102126.66;4104087;28;20035;-67
2021/11/16 00:05:30;;;;;;;35.28;22.83;;;7.00;99.90;;;6.67;100.00;102130.88;4103957;28;20039;-67
2021/11/16 00:07:32;;;;;;;35.58;22.52;;;7.00;99.90;;;6.52;100.00;102116.94;4104285;28;20059;-67
2021/11/16 00:09:33;;;;;;;36.60;22.67;;;6.90;99.90;;;6.54;100.00;102130.78;4103879;28;20042;-67
2021/11/16 00:11:35;;;;;;;37.22;23.00;;;6.90;99.90;;;6.54;100.00;102133.41;4103992;28;20454;-67
2021/11/16 00:13:36;;;;;;;38.42;23.48;;;6.90;99.90;;;6.45;100.00;102123.50;4103700;28;20088;-67
2021/11/16 00:15:43;;;;;;;39.20;23.65;;;6.90;99.90;;;6.38;100.00;102129.25;4104103;28;20486;-67
2021/11/16 00:17:44;;;;;;;34.55;22.77;;;6.90;99.90;;;6.30;100.00;102108.72;4104018;29;20031;-67
2021/11/16 00:19:48;;;;;;;35.72;21.95;;;6.90;99.90;;;6.45;100.00;102115.63;4103946;28;20055;-67
2021/11/16 00:21:50;;;;;;;38.88;22.98;;;6.90;99.90;;;6.50;100.00;102116.22;4103951;28;20122;-68
2021/11/16 00:23:56;;;;;;;38.80;22.85;;;7.00;99.90;;;6.50;100.00;102124.09;4103957;28;20553;-67
2021/11/16 00:25:56;;;;;;;41.90;23.75;;;7.00;99.90;;;6.48;100.00;102125.13;4103728;28;20031;-67
2021/11/16 00:27:58;;;;;;;36.03;22.23;;;7.00;99.90;;;6.55;100.00;102124.63;4103296;28;20162;-67
2021/11/16 00:30:00;;;;;;;37.95;22.30;;;7.10;99.90;;;6.65;100.00;102123.13;4103835;28;20034;-68
2021/11/16 00:32:02;;;;;;;39.03;24.25;;;7.10;99.90;;;6.69;100.00;102124.59;4103765;28;20063;-67
2021/11/16 00:34:04;;;;;;;33.78;21.52;;;7.10;99.90;;;6.69;100.00;102129.84;4103688;28;20078;-67
2021/11/16 00:36:05;;;;;;;40.05;22.95;;;7.20;99.90;;;6.78;100.00;102132.84;4103601;28;20019;-67
2021/11/16 00:38:10;;;;;;;36.92;23.10;;;7.20;99.90;;;6.80;100.00;102123.06;4103774;28;20046;-68
2021/11/16 00:40:18;;;;;;;36.00;23.88;;;7.30;99.90;;;6.84;100.00;102127.19;4103695;28;20034;-67
2021/11/16 00:42:19;;;;;;;38.60;23.08;;;7.30;99.90;;;6.88;100.00;102139.16;4103537;28;20043;-67
2021/11/16 00:44:20;;;;;;;35.72;23.55;;;7.30;99.90;;;6.87;100.00;102143.56;4103198;28;20023;-67
2021/11/16 00:46:21;;;;;;;35.25;23.00;;;7.40;99.90;;;6.72;100.00;102131.41;4103666;28;20035;-67
2021/11/16 00:48:25;;;;;;;34.95;22.67;;;7.30;99.90;;;6.83;100.00;102131.59;4103451;28;20091;-67
2021/11/16 00:50:26;;;;;;;32.08;21.15;;;7.40;99.90;;;6.93;100.00;102122.19;4103719;28;20027;-67
2021/11/16 00:52:27;;;;;;;33.53;21.92;;;7.40;99.90;;;7.03;100.00;102128.53;4103547;28;20028;-67
2021/11/16 00:54:28;;;;;;;35.63;23.13;;;7.50;99.90;;;7.02;100.00;102125.97;4103757;28;20038;-67
2021/11/16 00:56:29;;;;;;;35.08;22.08;;;7.50;99.90;;;7.00;100.00;102127.88;4103484;28;20063;-67
2021/11/16 00:58:30;;;;;;;31.88;20.45;;;7.50;99.90;;;7.03;100.00;102127.69;4103206;28;20039;-67
2021/11/16 01:00:31;;;;;;;31.58;20.25;;;7.50;99.90;;;7.10;100.00;102126.34;4103296;28;20042;-68
2021/11/16 01:02:34;;;;;;;35.97;21.67;;;7.60;99.90;;;7.11;100.00;102130.63;4103734;28;20498;-68
2021/11/16 01:04:35;;;;;;;34.92;21.70;;;7.60;99.90;;;7.06;100.00;102128.31;4103614;28;20591;-67
2021/11/16 01:06:36;;;;;;;34.17;20.23;;;7.60;99.90;;;7.10;100.00;102123.72;4103400;28;20031;-67
2021/11/16 01:08:37;;;;;;;34.83;21.88;;;7.70;99.90;;;7.10;100.00;102135.06;4103359;28;20387;-68
2021/11/16 01:10:40;;;;;;;30.08;19.60;;;7.60;99.90;;;7.09;100.00;102112.38;4103377;28;20031;-67
2021/11/16 01:12:43;;;;;;;35.55;20.90;;;7.70;99.90;;;7.24;100.00;102132.38;4103106;28;20028;-67
2021/11/16 01:14:45;;;;;;;38.03;23.48;;;7.70;99.90;;;7.21;100.00;102126.47;4103539;28;20467;-67
2021/11/16 01:16:47;;;;;;;34.10;22.42;;;7.70;99.90;;;7.24;100.00;102131.53;4103326;28;20027;-67
2021/11/16 01:18:48;;;;;;;39.22;24.23;;;7.80;99.90;;;7.23;100.00;102124.59;4103395;28;20118;-67
2021/11/16 01:20:50;;;;;;;32.42;20.35;;;7.80;99.90;;;7.32;100.00;102128.41;4103262;28;20031;-68
2021/11/16 01:22:55;;;;;;;37.53;22.48;;;7.80;99.90;;;7.33;100.00;102128.31;4103265;28;20122;-68
2021/11/16 01:24:56;;;;;;;38.90;23.80;;;7.90;99.90;;;7.42;100.00;102135.56;4103167;28;20070;-68
2021/11/16 01:26:57;;;;;;;35.45;19.80;;;8.00;99.90;;;7.39;100.00;102138.41;4103295;28;20503;-68
2021/11/16 01:29:00;;;;;;;34.00;21.05;;;8.00;99.90;;;7.40;100.00;102144.50;4102876;28;20032;-67
2021/11/16 01:31:04;;;;;;;35.83;20.85;;;8.00;99.90;;;7.34;100.00;102135.25;4103065;28;20167;-67
2021/11/16 01:33:06;;;;;;;38.78;22.23;;;8.00;99.90;;;7.32;100.00;102131.84;4103269;28;20115;-67
2021/11/16 01:35:08;;;;;;;34.50;22.17;;;8.00;99.90;;;7.46;100.00;102130.97;4103046;28;20036;-68
2021/11/16 01:37:09;;;;;;;39.42;23.95;;;8.00;99.90;;;7.45;100.00;102134.50;4103368;28;20027;-67
2021/11/16 01:39:10;;;;;;;39.35;24.27;;;8.00;99.90;;;7.37;100.00;102132.41;4103144;28;20399;-67
2021/11/16 01:41:11;;;;;;;41.70;23.88;;;8.10;99.90;;;7.29;100.00;102118.94;4102967;28;20035;-68
2021/11/16 01:43:14;;;;;;;32.50;21.85;;;8.10;99.90;;;7.45;100.00;102132.75;4102658;28;20142;-67
2021/11/16 01:45:19;;;;;;;39.30;23.88;;;8.00;99.90;;;7.59;100.00;102130.03;4103182;28;20030;-68
2021/11/16 01:47:20;;;;;;;38.00;24.65;;;8.10;99.90;;;7.70;100.00;102139.81;4103109;28;20035;-68
2021/11/16 01:49:21;;;;;;;37.03;24.02;;;8.10;99.90;;;7.77;100.00;102131.41;4102890;28;20039;-67
2021/11/16 01:51:27;;;;;;;37.60;23.15;;;8.20;99.90;;;7.74;100.00;102141.28;4103372;28;20024;-67
2021/11/16 01:53:29;;;;;;;36.42;22.55;;;8.20;99.90;;;7.73;100.00;102139.63;4103134;28;20031;-67
2021/11/16 01:55:30;;;;;;;36.88;21.88;;;8.20;99.90;;;7.74;100.00;102136.03;4103036;28;20066;-68
2021/11/16 01:57:31;;;;;;;39.25;23.30;;;8.30;99.90;;;7.74;100.00;102136.03;4105346;28;20460;-67
2021/11/16 01:59:34;;;;;;;34.40;21.92;;;8.30;99.90;;;7.76;100.00;102134.97;4104787;29;20062;-67
2021/11/16 02:01:36;;;;;;;37.78;22.23;;;8.30;99.90;;;7.82;100.00;102139.81;4105979;28;20575;-68
2021/11/16 02:03:37;;;;;;;37.75;23.83;;;8.30;99.90;;;7.82;100.00;102142.44;4105807;28;20043;-67
2021/11/16 02:05:51;;;;;;;38.10;21.83;;;8.40;99.90;;;7.80;100.00;102141.72;4105895;28;20034;-68
2021/11/16 02:07:52;;;;;;;36.00;22.08;;;8.40;99.90;;;7.74;100.00;102125.50;4105570;28;20032;-67
2021/11/16 02:09:53;;;;;;;37.88;22.75;;;8.40;99.90;;;8.04;100.00;102136.56;4105828;28;20414;-67
2021/11/16 02:11:54;;;;;;;35.10;21.88;;;8.50;99.90;;;7.96;100.00;102131.00;4105806;28;20498;-67
2021/11/16 02:13:55;;;;;;;33.55;22.73;;;8.50;99.90;;;7.88;100.00;102130.69;4105520;28;20023;-67
2021/11/16 02:15:57;;;;;;;35.80;22.65;;;8.50;99.90;;;8.04;100.00;102143.59;4105715;28;20031;-67
2021/11/16 02:17:58;;;;;;;37.38;22.67;;;8.50;99.90;;;8.13;100.00;102141.19;4105678;29;20023;-67
2021/11/16 02:19:59;;;;;;;37.42;22.98;;;8.50;99.90;;;8.08;100.00;102132.78;4105482;28;20086;-68
2021/11/16 02:22:00;;;;;;;36.90;21.52;;;8.50;99.90;;;8.07;100.00;102135.50;4104571;29;20106;-68
2021/11/16 02:24:02;;;;;;;39.63;22.60;;;8.60;99.90;;;7.82;100.00;102121.41;4105687;28;20028;-67
2021/11/16 02:26:03;;;;;;;41.10;22.17;;;8.50;99.90;;;7.79;100.00;102129.50;4105734;28;20472;-67
2021/11/16 02:28:06;;;;;;;36.42;22.75;;;8.40;99.90;;;7.87;100.00;102126.38;4105050;28;20034;-67
2021/11/16 02:30:08;;;;;;;36.20;21.83;;;8.40;99.90;;;7.94;100.00;102132.06;4105434;28;20023;-67
2021/11/16 02:32:09;;;;;;;35.75;22.27;;;8.40;99.90;;;7.90;100.00;102138.47;4104374;29;20142;-67
2021/11/16 02:34:11;;;;;;;35.15;22.15;;;8.40;99.90;;;7.87;100.00;102131.63;4105557;28;20020;-67
2021/11/16 02:36:13;;;;;;;35.97;22.45;;;8.40;99.90;;;7.90;100.00;102123.53;4105477;28;20070;-67
2021/11/16 02:38:14;;;;;;;32.72;21.48;;;8.40;99.90;;;7.80;100.00;102130.34;4105356;28;20031;-68
2021/11/16 02:40:16;;;;;;;33.13;21.40;;;8.40;99.90;;;7.70;100.00;102124.91;4105409;28;20036;-67
2021/11/16 02:42:20;;;;;;;37.67;22.05;;;8.30;99.90;;;7.68;100.00;102125.94;4104803;28;20051;-67
2021/11/16 02:44:23;;;;;;;36.65;21.63;;;8.30;99.90;;;7.71;100.00;102123.94;4105373;28;20031;-67
2021/11/16 02:46:23;;;;;;;35.50;21.58;;;8.30;99.90;;;7.65;100.00;102128.75;4105479;28;20082;-67
2021/11/16 02:48:24;;;;;;;33.60;21.65;;;8.30;99.90;;;7.77;100.00;102126.16;4105023;28;20555;-67
2021/11/16 02:50:25;;;;;;;31.92;21.48;;;8.30;99.90;;;7.75;100.00;102119.34;4105189;28;20403;-67
2021/11/16 02:52:27;;;;;;;31.85;19.65;;;8.30;99.90;;;7.79;100.00;102124.25;4104978;28;20070;-67
2021/11/16 02:54:28;;;;;;;36.58;21.92;;;8.30;99.90;;;7.96;100.00;102111.75;4105287;28;20026;-67
2021/11/16 02:56:30;;;;;;;35.03;21.27;;;8.30;99.90;;;8.01;100.00;102128.03;4105318;28;20027;-67
2021/11/16 02:58:31;;;;;;;33.50;19.73;;;8.40;99.90;;;7.88;100.00;102112.31;4105009;28;20511;-67
2021/11/16 03:00:34;;;;;;;31.08;19.85;;;8.40;99.90;;;7.82;100.00;102110.91;4104928;28;20035;-67
2021/11/16 03:02:35;;;;;;;31.33;19.85;;;8.40;99.90;;;7.75;100.00;102107.03;4104123;28;20508;-67
2021/11/16 03:04:43;;;;;;;30.60;19.67;;;8.40;99.90;;;7.79;100.00;102115.56;4105024;28;20110;-67
2021/11/16 03:06:44;;;;;;;33.72;21.05;;;8.40;99.90;;;7.80;100.00;102099.69;4104862;28;20046;-67
2021/11/16 03:08:45;;;;;;;36.45;21.80;;;8.40;99.90;;;8.17;100.00;102120.78;4103636;28;20023;-67
2021/11/16 03:10:47;;;;;;;31.48;19.10;;;8.40;99.90;;;7.98;100.00;102120.38;4104857;28;20031;-67
2021/11/16 03:12:49;;;;;;;30.83;20.00;;;8.50;99.90;;;7.92;100.00;102118.16;4104522;28;20029;-67
2021/11/16 03:14:50;;;;;;;31.55;19.88;;;8.50;99.90;;;7.79;100.00;102126.06;4104986;28;20439;-68
2021/11/16 03:16:52;;;;;;;32.08;19.25;;;8.40;99.90;;;7.75;100.00;102132.47;4104651;28;20043;-68
2021/11/16 03:18:55;;;;;;;34.50;21.65;;;8.40;99.90;;;7.91;100.00;102127.00;4104806;28;20062;-67
2021/11/16 03:20:56;;;;;;;32.28;19.63;;;8.40;99.90;;;7.82;100.00;102132.91;4104915;28;20436;-68
2021/11/16 03:23:07;;;;;;;29.95;19.85;;;8.40;99.90;;;7.77;100.00;102126.16;4104622;28;20081;-67
2021/11/16 03:25:09;;;;;;;31.52;18.85;;;8.40;99.90;;;7.87;100.00;102122.91;4104782;28;20038;-68
2021/11/16 03:27:13;;;;;;;36.15;21.90;;;8.40;99.90;;;7.68;100.00;102121.53;4104823;28;20030;-67
2021/11/16 03:29:18;;;;;;;33.50;20.48;;;8.50;99.90;;;7.86;100.00;102123.84;4104669;28;20042;-67
2021/11/16 03:33:28;;;;;;;32.28;20.83;;;8.40;99.90;;;8.09;100.00;102123.13;4104706;28;20066;-67
2021/11/16 03:35:30;;;;;;;31.67;20.08;;;8.50;99.90;;;8.09;100.00;102121.34;4104555;28;20059;-68
2021/11/16 03:37:39;;;;;;;32.70;21.50;;;8.50;99.90;;;7.90;100.00;102115.66;4104511;28;20042;-67
2021/11/16 03:39:40;;;;;;;29.58;19.50;;;8.50;99.90;;;7.77;100.00;102120.91;4104542;28;20382;-68
2021/11/16 03:41:42;;;;;;;32.47;19.40;;;8.50;99.90;;;7.82;100.00;102127.63;4103172;29;20051;-68
2021/11/16 03:43:45;;;;;;;33.28;20.52;;;8.40;99.90;;;7.72;100.00;102123.00;4104207;28;20590;-67
2021/11/16 03:45:47;;;;;;;34.60;21.55;;;8.40;99.90;;;7.59;100.00;102122.16;4104506;28;20619;-68
2021/11/16 03:47:49;;;;;;;36.45;21.13;;;8.30;99.90;;;7.90;100.00;102120.06;4104369;28;20534;-67
2021/11/16 03:49:51;;;;;;;32.65;19.60;;;8.40;99.90;;;7.83;100.00;102114.38;4104317;28;20058;-67
2021/11/16 03:51:53;;;;;;;36.53;20.27;;;8.40;99.90;;;8.02;100.00;102119.22;4104381;28;20058;-67
2021/11/16 03:53:54;;;;;;;29.52;17.30;;;8.40;99.90;;;7.94;100.00;102119.78;4104332;28;20397;-68
2021/11/16 03:55:55;;;;;;;29.27;18.45;;;8.40;99.90;;;7.87;100.00;102115.88;4104530;28;20487;-68
2021/11/16 03:57:58;;;;;;;29.00;17.85;;;8.40;99.90;;;7.82;100.00;102111.88;4103913;28;20074;-67
2021/11/16 03:59:59;;;;;;;31.98;19.48;;;8.40;99.90;;;7.80;100.00;102115.44;4104394;28;20450;-68
2021/11/16 04:02:00;;;;;;;26.17;17.35;;;8.30;99.90;;;7.77;100.00;102118.28;4104248;28;20496;-68
2021/11/16 04:04:05;;;;;;;29.02;19.85;;;8.40;99.90;;;7.71;100.00;102113.44;4104229;28;20034;-68
2021/11/16 04:06:07;;;;;;;34.40;21.45;;;8.30;99.90;;;7.72;100.00;102114.28;4104161;28;20038;-68
2021/11/16 04:08:10;;;;;;;34.30;19.42;;;8.30;99.90;;;7.71;100.00;102105.56;4104105;28;20499;-68
2021/11/16 04:10:12;;;;;;;34.28;20.15;;;8.40;99.90;;;7.79;100.00;102126.88;4104107;28;20035;-68
2021/11/16 04:12:13;;;;;;;31.02;19.80;;;8.30;99.90;;;7.78;100.00;102109.47;4103889;28;20042;-68
2021/11/16 04:14:15;;;;;;;27.60;18.08;;;8.40;99.90;;;7.76;100.00;102108.72;4104077;28;20029;-68
2021/11/16 04:16:16;;;;;;;33.33;19.45;;;8.40;99.90;;;7.82;100.00;102106.63;4102762;28;20083;-68
2021/11/16 04:18:19;;;;;;;30.60;18.88;;;8.30;99.90;;;7.74;100.00;102100.09;4101573;29;20031;-67
2021/11/16 04:20:33;;;;;;;31.70;19.10;;;8.30;99.90;;;7.79;100.00;102102.44;4103820;28;20063;-68
2021/11/16 04:22:35;;;;;;;31.13;19.73;;;8.30;99.90;;;7.74;100.00;102104.50;4104001;28;20031;-68
2021/11/16 04:24:36;;;;;;;31.40;19.48;;;8.40;99.90;;;7.67;100.00;102105.88;4104073;28;20594;-68
2021/11/16 04:26:37;;;;;;;31.15;18.67;;;8.30;99.90;;;7.70;100.00;102103.91;4103745;28;20031;-68
2021/11/16 04:28:38;;;;;;;34.20;20.17;;;8.30;99.90;;;7.70;100.00;102101.28;4103587;28;20487;-68
2021/11/16 04:30:40;;;;;;;30.83;19.48;;;8.30;99.90;;;7.84;100.00;102104.72;4103786;28;20027;-67
2021/11/16 04:32:42;;;;;;;27.95;17.85;;;8.30;99.90;;;7.86;100.00;102101.03;4104031;28;20102;-68
2021/11/16 04:34:43;;;;;;;31.38;18.17;;;8.30;99.90;;;7.83;100.00;102106.50;4103933;28;20027;-68
2021/11/16 04:36:44;;;;;;;33.65;19.35;;;8.40;99.90;;;7.91;100.00;102104.22;4104051;28;20024;-68
2021/11/16 04:38:46;;;;;;;30.73;18.02;;;8.40;99.90;;;7.91;100.00;102101.59;4103829;28;20086;-68
2021/11/16 04:40:52;;;;;;;29.05;17.63;;;8.40;99.90;;;7.90;100.00;102104.31;4103804;28;20442;-67
2021/11/16 04:42:56;;;;;;;28.38;17.02;;;8.40;99.90;;;7.79;100.00;102103.25;4103183;28;20142;-67
2021/11/16 04:44:57;;;;;;;29.50;18.40;;;8.40;99.90;;;7.98;100.00;102101.97;4103882;28;20491;-67
2021/11/16 04:46:59;;;;;;;28.60;16.70;;;8.40;99.90;;;7.87;100.00;102099.25;4103639;28;20058;-67
2021/11/16 04:55:56;;;;;;;27.63;17.55;;;8.40;99.90;;;8.03;100.00;102105.16;4103793;28;20177;-67
2021/11/16 05:02:42;;;;;;;30.90;18.27;;;8.40;99.90;;;7.99;100.00;102103.66;4103861;28;20037;-67
2021/11/16 05:04:43;;;;;;;31.05;19.25;;;8.50;99.90;;;7.91;100.00;102106.00;4103938;28;20414;-67
2021/11/16 05:06:45;;;;;;;27.00;17.60;;;8.50;99.90;;;7.85;100.00;102103.78;4103579;28;20086;-67
2021/11/16 05:08:48;;;;;;;34.60;19.42;;;8.50;99.90;;;7.74;100.00;102112.38;4103641;28;20078;-67
2021/11/16 05:10:49;;;;;;;30.02;18.50;;;8.50;99.90;;;7.72;100.00;102107.25;4103630;28;20392;-67
2021/11/16 05:12:50;;;;;;;26.92;17.33;;;8.40;99.90;;;7.74;100.00;102105.34;4103235;28;20064;-67
2021/11/16 05:14:51;;;;;;;30.95;18.63;;;8.40;99.90;;;7.82;100.00;102106.63;4103585;28;20034;-67
2021/11/16 05:16:52;;;;;;;32.03;19.13;;;8.40;99.90;;;7.89;100.00;102107.88;4103556;28;20027;-67
2021/11/16 05:18:54;;;;;;;32.15;19.63;;;8.40;99.90;;;7.95;100.00;102094.31;4103293;28;20035;-67
2021/11/16 05:20:55;;;;;;;28.73;17.90;;;8.40;99.90;;;7.88;100.00;102109.69;4103477;28;20403;-67
2021/11/16 05:22:56;;;;;;;28.85;17.90;;;8.40;99.90;;;7.81;100.00;102105.78;4103531;28;20031;-67
2021/11/16 05:24:57;;;;;;;26.08;16.67;;;8.40;99.90;;;7.67;100.00;102103.25;4103264;28;20027;-67
2021/11/16 05:26:59;;;;;;;30.00;17.05;;;8.40;99.90;;;7.71;100.00;102100.31;4103476;28;20038;-67
2021/11/16 05:29:00;;;;;;;31.48;18.92;;;8.30;99.90;;;7.79;100.00;102103.25;4103075;28;20110;-67
2021/11/16 05:31:01;;;;;;;29.15;19.02;;;8.30;99.90;;;7.66;100.00;102102.41;4103665;28;20054;-67
2021/11/16 05:33:02;;;;;;;31.52;18.23;;;8.30;99.90;;;7.61;100.00;102099.28;4106322;28;20031;-67
2021/11/16 05:35:06;;;;;;;32.53;18.80;;;8.30;99.90;;;7.54;100.00;102089.28;4106436;28;20035;-67
2021/11/16 05:37:08;;;;;;;29.10;17.48;;;8.20;99.90;;;7.56;100.00;102106.59;4106382;28;20423;-67
2021/11/16 05:39:10;;;;;;;34.40;19.42;;;8.20;99.90;;;7.59;100.00;102103.75;4106400;28;20475;-67
2021/11/16 05:41:12;;;;;;;29.20;16.75;;;8.20;99.90;;;7.64;100.00;102098.22;4106128;28;20034;-67
2021/11/16 05:43:13;;;;;;;33.00;19.10;;;8.20;99.90;;;7.65;100.00;102100.72;4105656;28;20059;-67
2021/11/16 05:45:14;;;;;;;27.58;17.98;;;8.20;99.90;;;7.63;100.00;102089.50;4106235;28;20058;-67
2021/11/16 05:47:16;;;;;;;29.88;18.52;;;8.20;99.90;;;7.61;100.00;102099.28;4106204;28;20102;-67
2021/11/16 05:49:18;;;;;;;31.48;19.15;;;8.20;99.90;;;7.66;100.00;102091.91;4106054;28;20047;-67
2021/11/16 05:51:23;;;;;;;27.27;16.40;;;8.20;99.90;;;7.61;100.00;102101.91;4106228;28;20083;-68
2021/11/16 05:53:24;;;;;;;29.20;18.38;;;8.20;99.90;;;7.62;100.00;102105.34;4106442;28;20024;-67
2021/11/16 05:55:25;;;;;;;28.83;18.25;;;8.20;99.90;;;7.56;100.00;102098.72;4106065;28;20086;-68
2021/11/16 05:57:26;;;;;;;32.60;20.27;;;8.20;99.90;;;7.65;100.00;102105.97;4105707;28;20032;-67
2021/11/16 05:59:33;;;;;;;28.67;18.88;;;8.20;99.90;;;7.63;100.00;102107.88;4106295;28;20027;-67
2021/11/16 06:01:35;;;;;;;31.50;18.15;;;8.20;99.90;;;7.76;100.00;102106.06;4106224;28;20035;-67
2021/11/16 06:03:36;;;;;;;28.55;16.88;;;8.20;99.90;;;7.70;100.00;102093.41;4106081;28;20058;-67
2021/11/16 06:05:37;;;;;;;28.00;17.80;;;8.30;99.90;;;7.74;100.00;102105.34;4106107;28;20046;-67
2021/11/16 06:07:39;;;;;;;27.40;17.73;;;8.30;99.90;;;7.68;100.00;102103.13;4106114;28;20101;-67
2021/11/16 06:09:42;;;;;;;31.98;17.73;;;8.30;99.90;;;7.67;100.00;102108.50;4104857;29;20038;-67
2021/11/16 06:11:43;;;;;;;30.08;17.17;;;8.30;99.90;;;7.62;100.00;102093.06;4105954;28;20074;-67
2021/11/16 06:13:46;;;;;;;28.80;18.08;;;8.30;99.90;;;7.70;100.00;102093.41;4105478;28;20043;-67
2021/11/16 06:15:47;;;;;;;29.92;17.70;;;8.20;99.90;;;7.64;100.00;102099.06;4105845;28;20019;-67
2021/11/16 06:17:48;;;;;;;27.65;17.27;;;8.30;99.90;;;7.67;100.00;102103.25;4104637;29;20062;-67
2021/11/16 06:19:50;;;;;;;29.23;18.33;;;8.30;99.90;;;7.71;100.00;102088.97;4105915;28;20440;-67
2021/11/16 06:21:53;;;;;;;29.02;18.10;;;8.30;99.90;;;7.86;100.00;102094.94;4105786;28;20031;-68
2021/11/16 06:23:54;;;;;;;28.10;17.25;;;8.30;99.90;;;7.77;100.00;102099.88;4105667;28;20066;-67
2021/11/16 06:25:55;;;;;;;28.92;17.75;;;8.30;99.90;;;7.79;100.00;102098.00;4105728;28;20050;-68
2021/11/16 06:27:55;;;;;;;34.13;19.77;;;8.30;99.90;;;7.78;100.00;102095.47;4105237;28;20028;-67
2021/11/16 06:29:56;;;;;;;27.63;17.52;;;8.30;99.90;;;7.82;100.00;102096.13;4105568;28;20110;-68
2021/11/16 06:31:58;;;;;;;29.02;17.73;;;8.40;99.90;;;7.81;100.00;102105.78;4105188;28;20016;-67
2021/11/16 06:34:02;;;;;;;30.95;18.23;;;8.40;99.90;;;7.74;100.00;102084.34;4105579;28;20106;-67
2021/11/16 06:36:04;;;;;;;27.63;17.63;;;8.30;99.90;;;7.78;100.00;102101.59;4105403;28;20024;-67
2021/11/16 06:38:05;;;;;;;29.83;17.88;;;8.40;99.90;;;7.74;100.00;102094.84;4105537;28;20031;-67
2021/11/16 06:40:07;;;;;;;29.67;17.73;;;8.40;99.90;;;7.75;100.00;102106.19;4105457;28;20086;-67
2021/11/16 06:42:12;;;;;;;34.28;19.98;;;8.30;99.90;;;7.82;100.00;102111.88;4104755;28;20122;-67
2021/11/16 06:44:18;;;;;;;32.50;19.08;;;8.40;99.90;;;7.70;100.00;102097.81;4105352;28;20479;-67
2021/11/16 06:46:19;;;;;;;28.98;18.10;;;8.30;99.90;;;7.75;100.00;102104.41;4104401;29;20038;-67
2021/11/16 06:48:21;;;;;;;26.88;16.52;;;8.30;99.90;;;7.67;100.00;102104.09;4105156;28;20415;-67
2021/11/16 06:50:22;;;;;;;29.17;18.33;;;8.30;99.90;;;7.68;100.00;102112.81;4105285;28;20019;-67
2021/11/16 06:52:25;;;;;;;36.13;20.35;;;8.30;99.90;;;7.79;100.00;102108.50;4105165;28;20027;-67
2021/11/16 06:54:27;;;;;;;29.05;17.15;;;8.40;99.90;;;7.75;100.00;102108.81;4105262;28;20035;-68
2021/11/16 06:56:28;;;;;;;30.42;17.88;;;8.30;99.90;;;7.73;100.00;102108.09;4105061;28;20027;-67
2021/11/16 06:58:29;;;;;;;33.28;19.40;;;8.40;99.90;;;7.96;100.00;102112.63;4104624;28;20031;-67
2021/11/16 07:00:33;;;;;;;28.10;17.60;;;8.40;99.90;;;7.87;100.00;102105.34;4104865;28;20086;-67
2021/11/16 07:02:35;;;;;;;31.92;19.02;;;8.40;99.90;;;7.99;100.00;102103.66;4105282;28;20677;-67
2021/11/16 07:04:39;;;;;;;32.13;18.27;;;8.40;99.90;;;7.84;100.00;102088.97;4105142;28;20078;-67
2021/11/16 07:06:44;;;;;;;34.92;18.48;;;8.50;99.90;;;7.88;100.00;102101.81;4104951;28;20038;-68
2021/11/16 07:08:47;;;;;;;30.23;17.33;;;8.50;99.90;;;7.88;100.00;102107.06;4104992;28;20568;-67
2021/11/16 07:10:48;;;;;;;32.58;19.00;;;8.40;99.90;;;7.87;100.00;102099.25;4104921;28;20031;-67
2021/11/16 07:12:49;;;;;;;27.30;16.48;;;8.50;99.90;;;7.96;100.00;102109.13;4104881;28;20030;-67
2021/11/16 07:14:51;;;;;;;31.40;19.13;;;8.50;99.90;;;7.92;100.00;102107.66;4104827;28;20034;-67
2021/11/16 07:16:55;;;;;;;30.05;17.50;;;8.50;99.90;;;8.03;100.00;102105.16;4104841;28;20034;-68
2021/11/16 07:18:58;;;;;;;27.58;18.40;;;8.50;99.90;;;7.96;100.00;102091.59;4104860;28;20114;-68
2021/11/16 07:21:00;;;;;;;25.55;16.58;;;8.60;99.90;;;7.98;100.00;102099.34;4106209;28;20452;-68
2021/11/16 07:23:01;;;;;;;34.17;20.65;;;8.50;99.90;;;7.66;100.00;102091.91;4105579;28;20566;-68
2021/11/16 07:25:08;;;;;;;31.90;18.52;;;8.60;99.90;;;7.98;100.00;102112.50;4105359;29;20499;-68
2021/11/16 07:27:11;;;;;;;29.25;17.98;;;8.50;99.90;;;7.88;100.00;102096.53;4105363;28;20030;-68
2021/11/16 07:29:15;;;;;;;29.52;16.95;;;8.50;99.90;;;7.91;100.00;102106.84;4105598;28;20492;-68
2021/11/16 07:31:22;;;;;;;27.13;17.42;;;8.50;99.90;;;7.86;100.00;102102.81;4105663;28;20024;-68
2021/11/16 07:33:24;;;;;;;33.80;18.85;;;8.50;99.90;;;8.01;100.00;102104.41;4105664;28;20514;-68
2021/11/16 07:35:31;;;;;;;32.38;19.52;;;8.50;99.90;;;8.04;100.00;102109.44;4105332;28;20081;-68
2021/11/16 07:37:40;;;;;;;32.65;18.83;;;8.60;99.90;;;7.92;100.00;102087.47;4105653;28;20027;-68
2021/11/16 07:40:00;;;;;;;33.05;18.38;;;8.60;99.90;;;7.99;100.00;102101.88;4105505;28;20035;-68
2021/11/16 07:42:08;;;;;;;33.10;18.52;;;8.60;99.90;;;8.00;100.00;102095.69;4104452;28;20130;-68
2021/11/16 07:44:14;;;;;;;28.27;17.60;;;8.60;99.90;;;7.96;100.00;102098.63;4105625;28;20428;-68
2021/11/16 07:46:15;;;;;;;30.70;19.00;;;8.60;99.90;;;7.92;100.00;102089.25;4105301;28;20109;-68
2021/11/16 07:48:19;;;;;;;29.08;18.17;;;8.60;99.90;;;7.99;100.00;102095.78;4104187;28;20130;-68
2021/11/16 07:50:32;;;;;;;;;;;8.60;99.90;;;7.99;100.00;102099.25;4104185;28;20034;-68
2021/11/16 07:52:34;;;;;;;29.80;16.88;;;8.60;99.90;;;7.99;100.00;102096.63;4103979;28;19910;-68
2021/11/16 07:54:35;;;;;;;29.17;18.42;;;8.60;99.90;;;8.04;100.00;102093.66;4103947;28;20035;-68
2021/11/16 07:56:36;;;;;;;29.73;18.60;;;8.70;99.90;;;8.04;100.00;102096.31;4104304;28;20106;-68
2021/11/16 07:58:43;;;;;;;30.08;19.17;;;8.70;99.90;;;8.06;100.00;102097.06;4103886;28;20090;-68
2021/11/16 08:00:47;;;;;;;35.13;19.02;;;8.70;99.90;;;8.07;100.00;102098.72;4103919;28;20038;-68
2021/11/16 08:02:51;;;;;;;33.30;19.40;;;8.70;99.90;;;8.16;100.00;102098.06;4104116;28;20467;-68
2021/11/16 08:05:06;;;;;;;31.20;19.50;;;8.80;99.90;;;8.17;100.00;102103.25;4103918;28;20035;-68
2021/11/16 08:07:33;;;;;;;29.77;17.90;;;8.80;99.90;;;8.27;100.00;102113.97;4103064;29;20066;-68
2021/11/16 08:11:45;;;;;;;40.00;20.55;;;8.90;99.90;;;8.45;100.00;102112.69;4104162;28;20027;-68
2021/11/16 08:14:00;;;;;;;40.10;24.00;;;9.00;99.90;;;8.47;100.00;102104.69;4103431;28;20057;-68
2021/11/16 08:16:10;;;;;;;43.67;26.02;;;9.00;99.90;;;8.54;100.00;102117.28;4103869;28;20023;-69
2021/11/16 08:18:14;;;;;;;48.95;25.17;;;9.10;99.90;;;8.51;100.00;102114.03;4103892;28;20023;-68
2021/11/16 08:20:16;;;;;;;35.67;21.33;;;9.10;99.90;;;8.69;100.00;102105.66;4104097;28;20088;-68
2021/11/16 08:22:19;;;;;;;32.22;18.90;;;9.10;99.90;;;8.66;100.00;102105.88;4104012;28;20574;-68
2021/11/16 08:24:20;;;;;;;33.72;20.65;;;9.20;99.90;;;8.66;100.00;102103.25;4104029;28;20028;-68
2021/11/16 08:26:24;;;;;;;31.30;19.23;;;9.20;99.90;;;8.51;100.00;102096.44;4103977;28;20086;-68
2021/11/16 08:28:26;;;;;;;31.10;18.70;;;9.20;99.90;;;8.74;100.00;102113.22;4103833;28;20035;-68
2021/11/16 08:30:28;;;;;;;31.63;18.63;;;9.20;99.90;;;8.74;100.00;102118.50;4103817;28;20074;-68
2021/11/16 08:32:34;;;;;;;32.03;18.15;;;9.30;99.90;;;8.65;100.00;102109.47;4103827;28;20023;-68
2021/11/16 08:34:47;;;;;;;31.10;19.05;;;9.30;99.90;;;8.71;100.00;102108.19;4102541;29;20484;-68
2021/11/16 08:36:54;;;;;;;30.02;17.50;;;9.30;99.90;;;8.85;100.00;102114.13;4103514;28;20065;-68
2021/11/16 08:38:59;;;;;;;30.92;17.67;;;9.40;99.90;;;8.86;100.00;102117.59;4103688;28;20045;-68
2021/11/16 08:41:01;;;;;;;30.38;17.63;;;9.40;99.90;;;8.82;100.00;102111.72;4103708;28;20407;-68